Latest Weather Observations for Wilcannia Airport

IDN60801

Issued at 12:05 pm EDT Friday 28 November 2014 (issued every 30 minutes, with the page automatically refreshed every 10 minutes)

About weather observations | Map of weather stations | Latest weather observations for NSW | Other Formats
Station Details ID: 046012 Name: WILCANNIA AERODROME AWS Lat: -31.52 Lon: 143.38 Height: 94.3 m
Data from the previous 72 hours. | See also: Recent months for locations in New South Wales
Date/Time
EDT
Temp
°C
App
Temp
°C
Dew
Point
Rel
Hum
%
Delta-T
°C
Wind Press
QNH
hPa
Press
MSL
hPa
Rain
since 9 am
mm
Dir
 
Spd
km/h
Gust
km/h
Spd
kts
Gust
kts
28/12:00pm 32.3 28.6 2.4 15 15.1 SSE 11 20 6 11 1016.2 1015.8 0.0
28/11:30am 32.2 27.5 3.2 16 14.9 SE 17 28 9 15 1016.6 1016.2 0.0
28/11:00am 30.4 25.5 1.8 16 14.2 SSE 17 28 9 15 1016.9 1016.5 0.0
28/10:30am 29.6 24.6 1.1 16 13.9 SSE 17 24 9 13 1017.0 1016.6 0.0
28/10:00am 28.4 23.2 0.2 16 13.4 SE 17 24 9 13 1017.2 1016.8 0.0
28/09:30am 27.8 22.2 -0.3 16 13.2 SE 19 22 10 12 1017.3 1016.9 0.0
28/09:00am 26.5 21.5 -1.3 16 12.7 SSE 15 20 8 11 1017.4 1017.0 0.0
28/08:30am 24.6 19.5 -2.0 17 11.8 SSE 15 20 8 11 1017.3 1016.9 0.0
28/08:00am 22.6 17.7 -0.8 21 10.4 SSE 15 20 8 11 1017.2 1016.8 0.0
28/07:30am 20.9 15.8 -2.2 21 9.9 SSE 15 20 8 11 1017.1 1016.7 0.0
28/07:00am 19.6 14.9 -2.1 23 9.2 SSE 13 19 7 10 1016.8 1016.4 0.0
28/06:30am 17.3 12.5 -2.9 25 8.2 SE 13 19 7 10 1016.7 1016.3 0.0
28/06:00am 17.3 12.5 -2.9 25 8.2 SSE 13 17 7 9 1016.2 1015.8 0.0
28/05:30am 17.3 12.5 -2.9 25 8.2 SSE 13 15 7 8 1016.0 1015.6 0.0
28/05:00am 17.9 13.1 -2.9 24 8.5 SSE 13 17 7 9 1015.9 1015.5 0.0
28/04:30am 18.4 13.2 -2.5 24 8.7 SSE 15 17 8 9 1015.8 1015.4 0.0
28/04:00am 17.4 12.7 -1.8 27 8.0 SE 13 15 7 8 1015.7 1015.3 0.0
28/03:30am 18.8 14.2 -1.1 26 8.5 SSE 13 15 7 8 1015.7 1015.3 0.0
28/03:00am 18.9 14.4 -0.5 27 8.4 SSE 13 13 7 7 1015.9 1015.5 0.0
28/02:30am 19.6 15.5 -0.4 26 8.8 SE 11 13 6 7 1016.0 1015.6 0.0
28/02:00am 21.0 16.5 -0.3 24 9.5 SSE 13 15 7 8 1016.2 1015.8 0.0
28/01:30am 22.4 17.2 0.3 23 10.1 SSE 17 22 9 12 1016.4 1016.0 0.0
28/01:00am 22.9 18.0 1.8 25 9.9 SSE 17 22 9 12 1016.7 1016.3 0.0
28/12:30am 23.4 18.6 2.8 26 9.9 SSE 17 20 9 11 1016.9 1016.5 0.0
28/12:00am 23.5 19.2 3.4 27 9.8 SSE 15 20 8 11 1016.8 1016.4 0.0
 
Date/Time
EDT
Temp
°C
App
Temp
°C
Dew
Point
Rel
Hum
%
Delta-T
°C
Wind Press
QNH
hPa
Press
MSL
hPa
Rain
since 9 am
mm
Dir
 
Spd
km/h
Gust
km/h
Spd
kts
Gust
kts
27/11:30pm 23.1 19.3 4.1 29 9.3 SSE 13 17 7 9 1017.0 1016.6 0.0
27/11:00pm 22.9 19.5 3.9 29 9.3 S 11 15 6 8 1017.0 1016.6 0.0
27/10:30pm 24.6 20.8 3.8 26 10.3 S 13 15 7 8 1017.1 1016.7 0.0
27/10:00pm 25.7 21.8 3.6 24 10.9 SSE 13 19 7 10 1016.8 1016.4 0.0
27/09:30pm 26.3 22.0 3.5 23 11.3 SSE 15 19 8 10 1016.7 1016.3 0.0
27/09:00pm 26.8 22.9 3.3 22 11.7 SSE 13 17 7 9 1016.6 1016.2 0.0
27/08:30pm 27.9 23.2 2.9 20 12.4 SSE 17 24 9 13 1016.3 1015.9 0.0
27/08:00pm 29.0 24.0 1.5 17 13.4 SSE 17 24 9 13 1016.3 1015.9 0.0
27/07:30pm 30.2 24.9 1.6 16 14.1 SSE 19 28 10 15 1015.9 1015.5 0.0
27/07:00pm 30.9 25.3 1.3 15 14.6 SSE 20 26 11 14 1015.6 1015.2 0.0
27/06:30pm 31.8 26.3 2.0 15 15.0 S 20 26 11 14 1015.3 1014.9 0.0
27/06:00pm 31.8 25.9 2.0 15 14.9 S 22 33 12 18 1015.4 1015.0 0.0
27/05:30pm 32.4 27.2 2.5 15 15.2 SSE 19 28 10 15 1015.4 1015.0 0.0
27/05:00pm 32.2 27.3 2.3 15 15.1 SSE 17 32 9 17 1015.6 1015.2 0.0
27/04:30pm 32.2 26.6 3.2 16 14.9 S 22 37 12 20 1015.9 1015.5 0.0
27/04:00pm 32.0 26.7 3.1 16 14.8 SE 20 32 11 17 1016.4 1016.0 0.0
27/03:30pm 31.9 26.8 3.0 16 14.8 SSE 19 30 10 16 1016.7 1016.3 0.0
27/03:00pm 31.0 25.6 2.3 16 14.4 SSE 20 32 11 17 1016.9 1016.5 0.0
27/02:30pm 31.1 25.3 2.3 16 14.5 SSE 22 35 12 19 1017.5 1017.1 0.0
27/02:00pm 31.2 25.8 2.4 16 14.5 SSE 20 30 11 16 1017.8 1017.4 0.0
27/01:30pm 29.9 24.1 2.2 17 13.8 S 22 32 12 17 1018.3 1017.9 0.0
27/01:00pm 30.1 24.1 3.2 18 13.6 SSE 24 35 13 19 1018.8 1018.4 0.0
27/12:30pm 29.1 24.0 3.9 20 12.8 SE 20 37 11 20 1019.1 1018.7 0.0
27/12:00pm 28.1 22.8 3.0 20 12.5 SSE 20 32 11 17 1019.6 1019.2 0.0
27/11:30am 28.7 23.8 4.9 22 12.3 SE 20 33 11 18 1019.9 1019.5 0.0
27/11:00am 27.3 21.5 4.4 23 11.6 SE 24 37 13 20 1020.1 1019.7 0.0
27/10:30am 26.3 20.4 4.1 24 11.2 SE 24 35 13 19 1020.2 1019.8 0.0
27/10:00am 26.0 20.4 5.6 27 10.5 SE 24 32 13 17 1020.2 1019.8 0.0
27/09:30am 25.1 19.6 5.8 29 9.9 ESE 24 32 13 17 1020.2 1019.8 0.0
27/09:00am 24.0 18.9 5.8 31 9.3 SE 22 30 12 16 1020.1 1019.7 0.0
27/08:30am 21.9 16.9 4.5 32 8.6 SE 20 30 11 16 1020.0 1019.6 0.0
27/08:00am 20.7 15.5 3.4 32 8.2 SSE 20 28 11 15 1019.7 1019.3 0.0
27/07:30am 19.0 13.8 2.4 33 7.7 SSE 19 24 10 13 1019.4 1019.0 0.0
27/07:00am 16.6 12.7 3.6 42 6.0 S 13 17 7 9 1019.1 1018.7 0.0
27/06:30am 14.5 10.6 3.6 48 5.0 S 13 15 7 8 1018.8 1018.4 0.0
27/06:00am 14.6 10.6 3.1 46 5.2 S 13 13 7 7 1018.4 1018.0 0.0
27/05:30am 15.0 11.4 3.2 45 5.4 S 11 13 6 7 1018.1 1017.7 0.0
27/05:00am 14.6 11.6 4.0 49 4.9 S 9 11 5 6 1018.1 1017.7 0.0
27/04:30am 14.7 11.3 4.1 49 4.9 S 11 11 6 6 1018.0 1017.6 0.0
27/04:00am 15.3 12.6 3.8 46 5.3 SSW 7 9 4 5 1017.8 1017.4 0.0
27/03:30am 16.4 13.2 3.1 41 6.1 S 9 11 5 6 1017.7 1017.3 0.0
27/03:00am 17.7 13.6 2.5 36 6.9 S 13 13 7 7 1017.6 1017.2 0.0
27/02:30am 18.5 15.2 2.4 34 7.4 SSE 9 13 5 7 1017.7 1017.3 0.0
27/02:00am 18.7 14.6 2.5 34 7.5 S 13 15 7 8 1017.6 1017.2 0.0
27/01:30am 18.9 15.2 2.3 33 7.6 S 11 13 6 7 1017.9 1017.5 0.0
27/01:00am 19.6 15.5 2.5 32 7.9 S 13 15 7 8 1018.1 1017.7 0.0
27/12:30am 19.8 16.4 1.7 30 8.3 S 9 13 5 7 1018.2 1017.8 0.0
27/12:00am 21.5 17.8 2.2 28 9.0 SSE 11 15 6 8 1018.1 1017.7 0.0
 
Date/Time
EDT
Temp
°C
App
Temp
°C
Dew
Point
Rel
Hum
%
Delta-T
°C
Wind Press
QNH
hPa
Press
MSL
hPa
Rain
since 9 am
mm
Dir
 
Spd
km/h
Gust
km/h
Spd
kts
Gust
kts
26/11:30pm 22.1 17.5 1.7 26 9.5 SSE 15 20 8 11 1018.3 1017.9 0.0
26/11:00pm 22.5 17.9 1.5 25 9.8 S 15 19 8 10 1018.2 1017.8 0.0
26/10:30pm 23.6 19.0 1.3 23 10.4 S 15 20 8 11 1018.3 1017.9 0.0
26/10:00pm 24.0 19.3 1.0 22 10.7 S 15 19 8 10 1018.0 1017.6 0.0
26/09:30pm 24.7 19.6 0.9 21 11.2 S 17 20 9 11 1017.6 1017.2 0.0
26/09:00pm 25.2 20.5 0.7 20 11.5 S 15 20 8 11 1017.3 1016.9 0.0
26/08:30pm 26.1 20.9 0.0 18 12.2 S 17 24 9 13 1016.9 1016.5 0.0
26/08:00pm 27.4 21.5 -0.6 16 13.0 S 20 28 11 15 1016.8 1016.4 0.0
26/07:30pm 28.5 22.6 -0.6 15 13.7 S 20 28 11 15 1016.7 1016.3 0.0
26/07:00pm 29.2 22.5 -1.0 14 14.1 S 24 35 13 19 1016.4 1016.0 0.0
26/06:30pm 29.6 23.2 -1.7 13 14.5 S 22 30 12 16 1016.3 1015.9 0.0
26/06:00pm 30.3 24.3 -1.2 13 14.8 S 20 26 11 14 1016.2 1015.8 0.0
26/05:30pm 30.3 24.0 -1.2 13 14.8 S 22 35 12 19 1016.1 1015.7 0.0
26/05:00pm 30.3 23.6 -1.2 13 14.8 S 24 33 13 18 1016.3 1015.9 0.0
26/04:30pm 30.4 24.1 -1.1 13 14.9 S 22 32 12 17 1016.4 1016.0 0.0
26/04:00pm 30.2 24.2 -1.2 13 14.7 SSE 20 37 11 20 1016.8 1016.4 0.0
26/03:30pm 30.6 24.9 -0.9 13 14.9 S 19 32 10 17 1017.0 1016.6 0.0
26/03:00pm 30.2 24.4 -1.2 13 14.7 SSW 19 26 10 14 1017.6 1017.2 0.0
26/02:30pm 29.5 22.8 -0.8 14 14.3 SSW 24 33 13 18 1017.8 1017.4 0.0
26/02:00pm 29.3 24.1 0.0 15 13.9 SSE 17 30 9 16 1018.2 1017.8 0.0
26/01:30pm 28.2 24.1 0.0 16 13.3 SSE 11 20 6 11 1018.6 1018.2 0.0
26/01:00pm 28.3 22.2 0.1 16 13.3 SSE 22 32 12 17 1019.0 1018.6 0.0
26/12:30pm 26.9 22.2 0.6 18 12.5 SE 15 32 8 17 1019.4 1019.0 0.0
26/12:00pm 26.2 20.4 0.0 18 12.2 SSE 20 30 11 16 1019.8 1019.4 0.0
26/11:30am 26.5 21.7 2.4 21 11.8 SSE 17 28 9 15 1020.0 1019.6 0.0
26/11:00am 25.4 20.9 2.2 22 11.2 SE 15 26 8 14 1020.3 1019.9 0.0
26/10:30am 25.4 20.9 2.2 22 11.2 ESE 15 20 8 11 1020.4 1020.0 0.0
26/10:00am 24.1 19.0 2.9 25 10.2 SSE 19 26 10 14 1020.3 1019.9 0.0
26/09:30am 23.5 19.1 2.9 26 9.9 SSW 15 22 8 12 1020.1 1019.7 0.0
26/09:00am 22.9 18.1 2.4 26 9.7 ESE 17 22 9 12 1020.1 1019.7 0.0
26/08:30am 21.7 17.7 2.9 29 9.0 ESE 13 19 7 10 1019.9 1019.5 0.0
26/08:00am 20.6 17.0 2.9 31 8.3 SE 11 19 6 10 1019.5 1019.1 0.0
26/07:30am 17.6 16.6 5.5 45 5.9 CALM 0 0 0 0 1019.1 1018.7 0.0
26/07:00am 13.5 11.4 5.9 60 3.6 ESE 6 7 3 4 1018.9 1018.5 0.0
26/06:30am 11.3 8.8 4.5 63 3.1 E 7 9 4 5 1018.6 1018.2 0.0
26/06:00am 11.2 8.2 4.0 61 3.2 ENE 9 13 5 7 1018.6 1018.2 0.0
26/05:30am 13.4 9.3 4.3 54 4.2 E 15 19 8 10 1018.3 1017.9 0.0
26/05:00am 13.1 9.6 3.5 52 4.3 SE 11 15 6 8 1018.0 1017.6 0.0
26/04:30am 13.5 10.0 3.3 50 4.6 S 11 13 6 7 1017.8 1017.4 0.0
26/04:00am 14.4 10.4 2.9 46 5.2 S 13 15 7 8 1017.8 1017.4 0.0
26/03:30am 15.0 11.0 2.9 44 5.5 SE 13 15 7 8 1018.0 1017.6 0.0
26/03:00am 16.5 12.4 2.5 39 6.3 SSE 13 19 7 10 1018.1 1017.7 0.0
26/02:30am 17.5 13.0 1.9 35 7.0 SE 15 19 8 10 1018.2 1017.8 0.0
26/02:00am 17.8 13.2 1.7 34 7.2 SE 15 20 8 11 1018.7 1018.3 0.0
26/01:30am 18.1 13.1 1.2 32 7.6 SSE 17 22 9 12 1018.8 1018.4 0.0
26/01:00am 18.0 13.0 1.1 32 7.5 SE 17 24 9 13 1018.9 1018.5 0.0
26/12:30am 17.5 13.1 0.6 32 7.4 SSE 13 17 7 9 1019.3 1018.9 0.0
26/12:00am 17.8 13.8 0.5 31 7.6 SSE 11 15 6 8 1019.4 1019.0 0.0
 
Date/Time
EDT
Temp
°C
App
Temp
°C
Dew
Point
Rel
Hum
%
Delta-T
°C
Wind Press
QNH
hPa
Press
MSL
hPa
Rain
since 9 am
mm
Dir
 
Spd
km/h
Gust
km/h
Spd
kts
Gust
kts
25/11:30pm 18.7 14.3 0.3 29 8.1 SSE 13 15 7 8 1019.4 1019.0 0.0
25/11:00pm 19.0 14.6 0.1 28 8.3 S 13 15 7 8 1019.3 1018.9 0.0
25/10:30pm 19.3 14.5 0.4 28 8.4 S 15 17 8 9 1019.1 1018.7 0.0
25/10:00pm 19.3 15.3 0.4 28 8.4 S 11 13 6 7 1019.1 1018.7 0.0
25/09:30pm 20.7 16.2 0.0 25 9.2 S 13 17 7 9 1018.8 1018.4 0.0
25/09:00pm 21.9 17.0 -0.8 22 10.1 S 15 17 8 9 1018.3 1017.9 0.0
25/08:30pm 23.2 18.6 -1.0 20 10.8 S 13 20 7 11 1018.0 1017.6 0.0
25/08:00pm 24.8 19.2 -2.7 16 12.0 S 17 24 9 13 1017.7 1017.3 0.0
25/07:30pm 26.1 20.9 -2.5 15 12.7 SSE 15 24 8 13 1017.4 1017.0 0.0
25/07:00pm 26.6 21.1 -2.1 15 12.9 SSE 17 22 9 12 1017.1 1016.7 0.0
25/06:30pm 27.0 21.9 -1.8 15 13.1 SSE 15 20 8 11 1016.9 1016.5 0.0
25/06:00pm 27.2 21.8 -1.7 15 13.1 SE 17 26 9 14 1016.9 1016.5 0.0
25/05:30pm 26.8 20.9 -2.0 15 13.0 SE 19 26 10 14 1017.2 1016.8 0.0
25/05:00pm 27.0 21.3 -0.9 16 12.9 SSE 19 32 10 17 1017.4 1017.0 0.0
25/04:30pm 26.6 21.2 -1.3 16 12.7 SSE 17 26 9 14 1017.7 1017.3 0.0
25/04:00pm 26.7 21.3 -1.2 16 12.8 SSE 17 30 9 16 1017.8 1017.4 0.0
25/03:30pm 26.2 19.8 -1.6 16 12.6 S 22 30 12 16 1018.2 1017.8 0.0
25/03:00pm 25.9 21.1 0.5 19 11.9 SSE 15 26 8 14 1018.4 1018.0 0.0
25/02:30pm 25.7 20.3 1.1 20 11.7 SE 19 35 10 19 1018.8 1018.4 0.0
25/02:00pm 24.9 20.7 1.7 22 11.0 S 13 26 7 14 1019.1 1018.7 0.0
25/01:30pm 24.0 18.4 1.0 22 10.7 SE 20 28 11 15 1019.4 1019.0 0.0
25/01:00pm 23.8 18.5 2.0 24 10.3 SSE 19 30 10 16 1019.8 1019.4 0.0
25/12:30pm 22.8 17.6 2.3 26 9.7 SE 19 30 10 16 1020.0 1019.6 0.0

Other Formats:

Comma delimited format used in spreadsheet applications
http://www.bom.gov.au/fwo/IDN60801/IDN60801.95695.axf

JavaScript Object Notation format (JSON) in row-major order
http://www.bom.gov.au/fwo/IDN60801/IDN60801.95695.json